KSAR/SAR METAR and TAF weather

Enter ICAO airport designator
Station Type Date Time Source
KSAR METAR 2019/07/20 20:35 UTC NOAA

KSAR 202035Z AUTO 22009G15KT 10SM SCT040 33/24 A2995 RMK AO2 T03260240


Station Type Date Time Source
KSAR Decoded METAR 2019/07/20 20:35 UTC NOAA

Sparta, Sparta Community-Hunter Field Airport, IL, United States (KSAR) 38-08-56N 089-41-55W
Jul 20, 2019 - 04:35 PM EDT / 2019.07.20 2035 UTC
Wind: from the SW (220 degrees) at 10 MPH (9 KT) gusting to 17 MPH (15 KT):0
Visibility: 10 mile(s):0
Sky conditions: partly cloudy
Temperature: 90.7 F (32.6 C)
Heat index: 101.3 F (38.5 C):1
Dew Point: 75.2 F (24.0 C)
Relative Humidity: 60%
Pressure (altimeter): 29.95 in. Hg (1014 hPa)
ob: KSAR 202035Z AUTO 22009G15KT 10SM SCT040 33/24 A2995 RMK AO2 T03260240
cycle: 20

Station Type Date Time Source
KSAR TAF UTC NOAA

Error!

Example: see airport list